sensor_id;sensor_type;location;lat;lon;timestamp;pressure;altitude;pressure_sealevel;temperature;humidity
76460;BME280;65299;46.084;18.762;2023-08-12T00:01:43;101258.25;;;14.50;72.11
76460;BME280;65299;46.084;18.762;2023-08-12T00:04:45;101252.91;;;14.50;72.17
76460;BME280;65299;46.084;18.762;2023-08-12T00:07:45;101252.38;;;14.53;71.81
76460;BME280;65299;46.084;18.762;2023-08-12T00:10:46;101256.66;;;14.49;72.08
76460;BME280;65299;46.084;18.762;2023-08-12T00:13:47;101256.09;;;14.52;72.37
76460;BME280;65299;46.084;18.762;2023-08-12T00:16:47;101253.44;;;14.47;72.63
76460;BME280;65299;46.084;18.762;2023-08-12T00:19:48;101252.34;;;14.48;72.35
76460;BME280;65299;46.084;18.762;2023-08-12T00:22:48;101255.31;;;14.47;72.93
76460;BME280;65299;46.084;18.762;2023-08-12T00:25:49;101253.66;;;14.36;73.21
76460;BME280;65299;46.084;18.762;2023-08-12T00:28:49;101251.81;;;14.41;73.35
76460;BME280;65299;46.084;18.762;2023-08-12T00:31:50;101250.22;;;14.35;73.33
76460;BME280;65299;46.084;18.762;2023-08-12T00:34:50;101245.13;;;14.39;73.16
76460;BME280;65299;46.084;18.762;2023-08-12T00:37:51;101245.91;;;14.34;73.48
76460;BME280;65299;46.084;18.762;2023-08-12T00:40:51;101252.84;;;14.30;73.36
76460;BME280;65299;46.084;18.762;2023-08-12T00:43:52;101245.13;;;14.29;73.35
76460;BME280;65299;46.084;18.762;2023-08-12T00:46:52;101250.47;;;14.29;73.28
76460;BME280;65299;46.084;18.762;2023-08-12T00:49:52;101250.19;;;14.30;73.22
76460;BME280;65299;46.084;18.762;2023-08-12T00:52:53;101242.69;;;14.27;73.83
76460;BME280;65299;46.084;18.762;2023-08-12T00:55:53;101238.63;;;14.20;74.67
76460;BME280;65299;46.084;18.762;2023-08-12T00:58:55;101245.38;;;14.32;73.77
76460;BME280;65299;46.084;18.762;2023-08-12T01:01:55;101243.75;;;14.21;73.99
76460;BME280;65299;46.084;18.762;2023-08-12T01:04:56;101249.88;;;14.17;74.69
76460;BME280;65299;46.084;18.762;2023-08-12T01:07:56;101238.38;;;14.16;74.58
76460;BME280;65299;46.084;18.762;2023-08-12T01:11:12;101245.88;;;14.24;73.68
76460;BME280;65299;46.084;18.762;2023-08-12T01:14:19;101237.88;;;14.19;73.77
76460;BME280;65299;46.084;18.762;2023-08-12T01:17:23;101237.84;;;14.14;73.91
76460;BME280;65299;46.084;18.762;2023-08-12T01:20:24;101243.69;;;14.11;73.83
76460;BME280;65299;46.084;18.762;2023-08-12T01:23:26;101231.94;;;14.07;74.62
76460;BME280;65299;46.084;18.762;2023-08-12T01:26:27;101231.44;;;14.20;74.30
76460;BME280;65299;46.084;18.762;2023-08-12T01:29:27;101240.06;;;14.42;73.46
76460;BME280;65299;46.084;18.762;2023-08-12T01:32:56;101243.31;;;14.59;72.56
76460;BME280;65299;46.084;18.762;2023-08-12T01:36:07;101245.41;;;14.37;73.96
76460;BME280;65299;46.084;18.762;2023-08-12T01:39:09;101252.09;;;14.45;73.44
76460;BME280;65299;46.084;18.762;2023-08-12T01:42:11;101249.41;;;14.45;71.97
76460;BME280;65299;46.084;18.762;2023-08-12T01:45:12;101250.50;;;14.59;72.05
76460;BME280;65299;46.084;18.762;2023-08-12T01:48:12;101258.56;;;14.84;71.26
76460;BME280;65299;46.084;18.762;2023-08-12T01:51:13;101257.16;;;14.41;72.88
76460;BME280;65299;46.084;18.762;2023-08-12T01:54:13;101261.75;;;14.71;71.90
76460;BME280;65299;46.084;18.762;2023-08-12T01:57:14;101251.59;;;14.83;71.40
76460;BME280;65299;46.084;18.762;2023-08-12T02:00:15;101255.84;;;14.69;71.94
76460;BME280;65299;46.084;18.762;2023-08-12T02:03:15;101251.75;;;14.21;73.62
76460;BME280;65299;46.084;18.762;2023-08-12T02:06:16;101245.81;;;14.09;75.12
76460;BME280;65299;46.084;18.762;2023-08-12T02:09:16;101247.56;;;14.55;72.46
76460;BME280;65299;46.084;18.762;2023-08-12T02:12:16;101243.19;;;14.19;73.94
76460;BME280;65299;46.084;18.762;2023-08-12T02:15:17;101247.72;;;14.19;74.34
76460;BME280;65299;46.084;18.762;2023-08-12T02:18:17;101248.59;;;14.29;73.97
76460;BME280;65299;46.084;18.762;2023-08-12T02:21:18;101246.91;;;14.18;74.10
76460;BME280;65299;46.084;18.762;2023-08-12T02:24:18;101250.44;;;14.34;73.60
76460;BME280;65299;46.084;18.762;2023-08-12T02:27:18;101248.75;;;14.07;74.58
76460;BME280;65299;46.084;18.762;2023-08-12T02:30:19;101247.84;;;13.77;75.81
76460;BME280;65299;46.084;18.762;2023-08-12T02:33:19;101250.44;;;13.62;76.36
76460;BME280;65299;46.084;18.762;2023-08-12T02:36:20;101244.25;;;13.51;77.38
76460;BME280;65299;46.084;18.762;2023-08-12T02:39:20;101242.38;;;13.52;77.74
76460;BME280;65299;46.084;18.762;2023-08-12T02:42:21;101247.78;;;13.62;77.09
76460;BME280;65299;46.084;18.762;2023-08-12T02:45:21;101244.78;;;13.53;77.52
76460;BME280;65299;46.084;18.762;2023-08-12T02:48:21;101254.38;;;13.54;77.14
76460;BME280;65299;46.084;18.762;2023-08-12T02:51:22;101251.28;;;13.72;76.63
76460;BME280;65299;46.084;18.762;2023-08-12T02:54:22;101247.28;;;13.70;76.29
76460;BME280;65299;46.084;18.762;2023-08-12T02:57:23;101248.25;;;13.54;77.44
76460;BME280;65299;46.084;18.762;2023-08-12T03:00:23;101249.34;;;13.58;77.01
76460;BME280;65299;46.084;18.762;2023-08-12T03:03:24;101252.56;;;13.65;76.28
76460;BME280;65299;46.084;18.762;2023-08-12T03:06:24;101248.38;;;13.74;75.57
76460;BME280;65299;46.084;18.762;2023-08-12T03:09:24;101244.97;;;13.88;75.14
76460;BME280;65299;46.084;18.762;2023-08-12T03:12:25;101247.31;;;13.80;75.47
76460;BME280;65299;46.084;18.762;2023-08-12T03:15:25;101241.44;;;13.83;75.38
76460;BME280;65299;46.084;18.762;2023-08-12T03:18:26;101240.59;;;13.72;75.89
76460;BME280;65299;46.084;18.762;2023-08-12T03:21:26;101239.50;;;13.68;75.91
76460;BME280;65299;46.084;18.762;2023-08-12T03:24:26;101243.81;;;13.69;75.97
76460;BME280;65299;46.084;18.762;2023-08-12T03:27:27;101250.50;;;13.77;76.14
76460;BME280;65299;46.084;18.762;2023-08-12T03:30:27;101250.53;;;13.87;75.32
76460;BME280;65299;46.084;18.762;2023-08-12T03:33:27;101255.00;;;13.71;75.80
76460;BME280;65299;46.084;18.762;2023-08-12T03:36:28;101256.31;;;13.64;76.12
76460;BME280;65299;46.084;18.762;2023-08-12T03:39:28;101256.81;;;13.56;76.79
76460;BME280;65299;46.084;18.762;2023-08-12T03:42:29;101249.34;;;13.58;76.30
76460;BME280;65299;46.084;18.762;2023-08-12T03:45:29;101253.16;;;13.72;76.21
76460;BME280;65299;46.084;18.762;2023-08-12T03:48:29;101262.84;;;13.88;75.91
76460;BME280;65299;46.084;18.762;2023-08-12T03:51:30;101260.06;;;13.68;76.26
76460;BME280;65299;46.084;18.762;2023-08-12T03:54:30;101257.91;;;13.65;76.39
76460;BME280;65299;46.084;18.762;2023-08-12T03:57:30;101257.63;;;13.61;76.36
76460;BME280;65299;46.084;18.762;2023-08-12T04:00:31;101268.59;;;13.65;76.86
76460;BME280;65299;46.084;18.762;2023-08-12T04:03:32;101260.84;;;13.63;76.40
76460;BME280;65299;46.084;18.762;2023-08-12T04:06:32;101265.69;;;13.71;75.98
76460;BME280;65299;46.084;18.762;2023-08-12T04:09:32;101271.88;;;13.82;75.93
76460;BME280;65299;46.084;18.762;2023-08-12T04:12:33;101270.91;;;14.08;75.18
76460;BME280;65299;46.084;18.762;2023-08-12T04:15:33;101265.50;;;13.93;75.70
76460;BME280;65299;46.084;18.762;2023-08-12T04:18:33;101266.31;;;13.88;76.38
76460;BME280;65299;46.084;18.762;2023-08-12T04:21:34;101265.88;;;14.17;75.76
76460;BME280;65299;46.084;18.762;2023-08-12T04:24:34;101265.16;;;14.36;74.62
76460;BME280;65299;46.084;18.762;2023-08-12T04:27:35;101278.53;;;14.46;73.95
76460;BME280;65299;46.084;18.762;2023-08-12T04:30:35;101279.63;;;14.60;73.75
76460;BME280;65299;46.084;18.762;2023-08-12T04:33:36;101278.53;;;14.56;73.18
76460;BME280;65299;46.084;18.762;2023-08-12T04:36:36;101271.66;;;15.11;72.41
76460;BME280;65299;46.084;18.762;2023-08-12T04:39:36;101275.94;;;15.07;71.83
76460;BME280;65299;46.084;18.762;2023-08-12T04:42:37;101282.88;;;15.23;71.84
76460;BME280;65299;46.084;18.762;2023-08-12T04:45:37;101281.09;;;15.97;69.04
76460;BME280;65299;46.084;18.762;2023-08-12T04:48:38;101289.28;;;16.26;68.44
76460;BME280;65299;46.084;18.762;2023-08-12T04:51:38;101288.19;;;16.27;68.72
76460;BME280;65299;46.084;18.762;2023-08-12T04:54:39;101277.97;;;16.34;68.60
76460;BME280;65299;46.084;18.762;2023-08-12T04:57:39;101281.84;;;16.62;67.88
76460;BME280;65299;46.084;18.762;2023-08-12T05:00:39;101278.63;;;16.98;66.29
76460;BME280;65299;46.084;18.762;2023-08-12T05:03:40;101284.31;;;17.54;65.33
76460;BME280;65299;46.084;18.762;2023-08-12T05:06:40;101285.63;;;17.80;65.95
76460;BME280;65299;46.084;18.762;2023-08-12T05:09:41;101284.03;;;17.79;66.34
76460;BME280;65299;46.084;18.762;2023-08-12T05:12:44;101293.97;;;17.79;67.38
76460;BME280;65299;46.084;18.762;2023-08-12T05:15:47;101290.72;;;17.82;66.70
76460;BME280;65299;46.084;18.762;2023-08-12T05:18:47;101290.25;;;17.98;65.68
76460;BME280;65299;46.084;18.762;2023-08-12T05:21:48;101287.50;;;18.46;63.63
76460;BME280;65299;46.084;18.762;2023-08-12T05:24:48;101285.75;;;18.73;62.98
76460;BME280;65299;46.084;18.762;2023-08-12T05:27:49;101286.91;;;18.86;62.87
76460;BME280;65299;46.084;18.762;2023-08-12T05:30:50;101278.44;;;18.60;63.40
76460;BME280;65299;46.084;18.762;2023-08-12T05:33:50;101292.88;;;18.83;63.01
76460;BME280;65299;46.084;18.762;2023-08-12T05:36:51;101284.81;;;19.29;62.19
76460;BME280;65299;46.084;18.762;2023-08-12T05:39:51;101291.88;;;19.43;61.80
76460;BME280;65299;46.084;18.762;2023-08-12T05:42:52;101287.53;;;19.29;62.40
76460;BME280;65299;46.084;18.762;2023-08-12T05:45:52;101288.19;;;19.21;63.56
76460;BME280;65299;46.084;18.762;2023-08-12T05:48:52;101287.75;;;19.32;62.74
76460;BME280;65299;46.084;18.762;2023-08-12T05:51:53;101294.47;;;19.48;59.99
76460;BME280;65299;46.084;18.762;2023-08-12T05:54:53;101288.72;;;19.68;59.49
76460;BME280;65299;46.084;18.762;2023-08-12T05:57:53;101289.19;;;19.98;58.12
76460;BME280;65299;46.084;18.762;2023-08-12T06:00:54;101294.38;;;20.08;57.91
76460;BME280;65299;46.084;18.762;2023-08-12T06:03:54;101296.56;;;20.33;56.76
76460;BME280;65299;46.084;18.762;2023-08-12T06:06:55;101292.09;;;20.64;56.28
76460;BME280;65299;46.084;18.762;2023-08-12T06:09:55;101291.47;;;20.89;55.67
76460;BME280;65299;46.084;18.762;2023-08-12T06:12:55;101291.13;;;21.26;53.92
76460;BME280;65299;46.084;18.762;2023-08-12T06:15:56;101293.06;;;21.34;54.84
76460;BME280;65299;46.084;18.762;2023-08-12T06:18:57;101284.00;;;21.30;54.82
76460;BME280;65299;46.084;18.762;2023-08-12T06:21:57;101285.38;;;21.59;54.86
76460;BME280;65299;46.084;18.762;2023-08-12T06:24:57;101284.91;;;21.57;54.63
76460;BME280;65299;46.084;18.762;2023-08-12T06:27:58;101303.81;;;21.48;54.08
76460;BME280;65299;46.084;18.762;2023-08-12T06:30:58;101295.63;;;21.79;53.75
76460;BME280;65299;46.084;18.762;2023-08-12T06:33:59;101299.38;;;21.61;54.01
76460;BME280;65299;46.084;18.762;2023-08-12T06:36:59;101298.63;;;21.07;54.79
76460;BME280;65299;46.084;18.762;2023-08-12T06:40:00;101300.13;;;21.53;54.33
76460;BME280;65299;46.084;18.762;2023-08-12T06:43:00;101312.25;;;21.55;53.90
76460;BME280;65299;46.084;18.762;2023-08-12T06:46:01;101303.31;;;21.55;53.32
76460;BME280;65299;46.084;18.762;2023-08-12T06:49:01;101309.59;;;22.03;53.27
76460;BME280;65299;46.084;18.762;2023-08-12T06:52:01;101308.81;;;22.11;52.65
76460;BME280;65299;46.084;18.762;2023-08-12T06:55:02;101301.50;;;22.20;52.90
76460;BME280;65299;46.084;18.762;2023-08-12T06:58:02;101304.03;;;22.08;52.80
76460;BME280;65299;46.084;18.762;2023-08-12T07:01:03;101304.84;;;22.17;53.34
76460;BME280;65299;46.084;18.762;2023-08-12T07:04:03;101306.00;;;22.50;52.65
76460;BME280;65299;46.084;18.762;2023-08-12T07:07:04;101299.06;;;22.58;52.41
76460;BME280;65299;46.084;18.762;2023-08-12T07:10:05;101302.38;;;22.72;51.16
76460;BME280;65299;46.084;18.762;2023-08-12T07:13:06;101301.91;;;22.78;50.80
76460;BME280;65299;46.084;18.762;2023-08-12T07:16:06;101293.28;;;22.85;50.90
76460;BME280;65299;46.084;18.762;2023-08-12T07:19:07;101296.19;;;22.80;51.28
76460;BME280;65299;46.084;18.762;2023-08-12T07:22:07;101291.38;;;23.02;50.27
76460;BME280;65299;46.084;18.762;2023-08-12T07:25:08;101292.31;;;23.06;50.18
76460;BME280;65299;46.084;18.762;2023-08-12T07:28:09;101295.44;;;23.26;48.93
76460;BME280;65299;46.084;18.762;2023-08-12T07:31:09;101292.53;;;23.48;49.41
76460;BME280;65299;46.084;18.762;2023-08-12T07:34:09;101298.06;;;23.60;48.31
76460;BME280;65299;46.084;18.762;2023-08-12T07:37:13;101301.22;;;23.70;48.21
76460;BME280;65299;46.084;18.762;2023-08-12T07:40:13;101305.66;;;23.75;49.47
76460;BME280;65299;46.084;18.762;2023-08-12T07:43:14;101305.28;;;23.85;49.09
76460;BME280;65299;46.084;18.762;2023-08-12T07:46:14;101307.50;;;23.92;48.60
76460;BME280;65299;46.084;18.762;2023-08-12T07:49:15;101307.53;;;24.21;47.76
76460;BME280;65299;46.084;18.762;2023-08-12T07:52:16;101311.72;;;24.59;47.00
76460;BME280;65299;46.084;18.762;2023-08-12T07:55:16;101311.72;;;24.59;46.85
76460;BME280;65299;46.084;18.762;2023-08-12T07:58:17;101310.25;;;24.41;46.56
76460;BME280;65299;46.084;18.762;2023-08-12T08:01:17;101304.28;;;24.68;45.85
76460;BME280;65299;46.084;18.762;2023-08-12T08:04:18;101304.97;;;24.45;46.13
76460;BME280;65299;46.084;18.762;2023-08-12T08:07:18;101308.22;;;24.59;45.03
76460;BME280;65299;46.084;18.762;2023-08-12T08:10:19;101303.78;;;24.54;43.71
76460;BME280;65299;46.084;18.762;2023-08-12T08:13:19;101306.47;;;24.54;43.09
76460;BME280;65299;46.084;18.762;2023-08-12T08:16:20;101306.03;;;24.94;40.83
76460;BME280;65299;46.084;18.762;2023-08-12T08:19:20;101305.91;;;24.90;38.55
76460;BME280;65299;46.084;18.762;2023-08-12T08:22:20;101299.19;;;24.67;37.94
76460;BME280;65299;46.084;18.762;2023-08-12T08:25:21;101301.88;;;25.08;39.95
76460;BME280;65299;46.084;18.762;2023-08-12T08:28:21;101296.44;;;25.41;38.92
76460;BME280;65299;46.084;18.762;2023-08-12T08:31:22;101307.91;;;25.14;40.09
76460;BME280;65299;46.084;18.762;2023-08-12T08:34:22;101298.69;;;25.39;38.16
76460;BME280;65299;46.084;18.762;2023-08-12T08:37:23;101300.53;;;25.59;38.17
76460;BME280;65299;46.084;18.762;2023-08-12T08:40:23;101297.13;;;25.62;38.06
76460;BME280;65299;46.084;18.762;2023-08-12T08:43:25;101288.06;;;25.70;36.92
76460;BME280;65299;46.084;18.762;2023-08-12T08:46:26;101290.78;;;25.58;37.65
76460;BME280;65299;46.084;18.762;2023-08-12T08:49:28;101293.28;;;25.63;38.88
76460;BME280;65299;46.084;18.762;2023-08-12T08:52:31;101283.97;;;26.00;37.25
76460;BME280;65299;46.084;18.762;2023-08-12T08:55:32;101283.88;;;26.09;35.90
76460;BME280;65299;46.084;18.762;2023-08-12T08:58:33;101288.63;;;26.24;36.49
76460;BME280;65299;46.084;18.762;2023-08-12T09:01:36;101285.00;;;26.20;35.65
76460;BME280;65299;46.084;18.762;2023-08-12T09:04:36;101286.13;;;25.95;36.49
76460;BME280;65299;46.084;18.762;2023-08-12T09:07:37;101275.38;;;26.10;36.44
76460;BME280;65299;46.084;18.762;2023-08-12T09:10:39;101277.63;;;25.96;35.77
76460;BME280;65299;46.084;18.762;2023-08-12T09:13:41;101283.97;;;26.00;36.18
76460;BME280;65299;46.084;18.762;2023-08-12T09:16:41;101280.97;;;26.42;35.22
76460;BME280;65299;46.084;18.762;2023-08-12T09:19:41;101276.88;;;26.08;33.36
76460;BME280;65299;46.084;18.762;2023-08-12T09:22:43;101269.06;;;26.46;32.49
76460;BME280;65299;46.084;18.762;2023-08-12T09:25:43;101273.16;;;26.68;32.96
76460;BME280;65299;46.084;18.762;2023-08-12T09:28:45;101270.22;;;26.73;32.59
76460;BME280;65299;46.084;18.762;2023-08-12T09:31:45;101263.34;;;26.63;33.02
76460;BME280;65299;46.084;18.762;2023-08-12T09:34:55;101270.34;;;26.64;33.90
76460;BME280;65299;46.084;18.762;2023-08-12T09:37:56;101263.88;;;26.96;32.06
76460;BME280;65299;46.084;18.762;2023-08-12T09:40:58;101256.16;;;27.14;32.79
76460;BME280;65299;46.084;18.762;2023-08-12T09:43:58;101266.41;;;26.89;33.75
76460;BME280;65299;46.084;18.762;2023-08-12T09:46:59;101263.47;;;27.10;31.72
76460;BME280;65299;46.084;18.762;2023-08-12T09:50:01;101254.50;;;27.09;30.78
76460;BME280;65299;46.084;18.762;2023-08-12T09:53:02;101257.06;;;26.75;29.71
76460;BME280;65299;46.084;18.762;2023-08-12T09:56:06;101248.25;;;26.54;30.43
76460;BME280;65299;46.084;18.762;2023-08-12T09:59:08;101254.69;;;26.73;28.89
76460;BME280;65299;46.084;18.762;2023-08-12T10:02:12;101248.91;;;26.63;28.66
76460;BME280;65299;46.084;18.762;2023-08-12T10:05:28;101241.97;;;26.77;28.87
76460;BME280;65299;46.084;18.762;2023-08-12T10:08:31;101239.78;;;26.83;29.30
76460;BME280;65299;46.084;18.762;2023-08-12T10:11:32;101233.66;;;27.17;28.57
76460;BME280;65299;46.084;18.762;2023-08-12T10:14:33;101238.28;;;27.01;28.71
76460;BME280;65299;46.084;18.762;2023-08-12T10:17:34;101239.44;;;27.00;30.62
76460;BME280;65299;46.084;18.762;2023-08-12T10:20:35;101230.31;;;27.08;30.94
76460;BME280;65299;46.084;18.762;2023-08-12T10:23:37;101230.25;;;27.36;30.38
76460;BME280;65299;46.084;18.762;2023-08-12T10:26:38;101220.72;;;26.71;28.89
76460;BME280;65299;46.084;18.762;2023-08-12T10:29:42;101225.19;;;26.75;29.23
76460;BME280;65299;46.084;18.762;2023-08-12T10:32:45;101218.97;;;26.63;30.02
76460;BME280;65299;46.084;18.762;2023-08-12T10:35:47;101218.94;;;26.75;29.88
76460;BME280;65299;46.084;18.762;2023-08-12T10:38:48;101225.03;;;27.15;29.21
76460;BME280;65299;46.084;18.762;2023-08-12T10:41:54;101215.28;;;27.30;29.88
76460;BME280;65299;46.084;18.762;2023-08-12T10:44:57;101207.28;;;27.37;28.37
76460;BME280;65299;46.084;18.762;2023-08-12T10:50:59;101205.84;;;27.27;29.30
76460;BME280;65299;46.084;18.762;2023-08-12T10:57:35;101203.75;;;27.52;28.57
76460;BME280;65299;46.084;18.762;2023-08-12T11:00:41;101187.94;;;27.26;28.16
76460;BME280;65299;46.084;18.762;2023-08-12T11:03:45;101195.03;;;27.31;28.94
76460;BME280;65299;46.084;18.762;2023-08-12T11:06:46;101194.81;;;27.36;29.01
76460;BME280;65299;46.084;18.762;2023-08-12T11:09:51;101198.94;;;27.80;28.32
76460;BME280;65299;46.084;18.762;2023-08-12T11:16:06;101193.69;;;28.25;27.53
76460;BME280;65299;46.084;18.762;2023-08-12T11:19:08;101179.91;;;27.99;27.97
76460;BME280;65299;46.084;18.762;2023-08-12T11:22:09;101183.69;;;27.95;27.84
76460;BME280;65299;46.084;18.762;2023-08-12T11:25:13;101180.84;;;28.26;28.63
76460;BME280;65299;46.084;18.762;2023-08-12T11:28:14;101174.88;;;28.20;28.48
76460;BME280;65299;46.084;18.762;2023-08-12T11:31:15;101171.00;;;27.67;29.17
76460;BME280;65299;46.084;18.762;2023-08-12T11:34:16;101173.72;;;28.21;29.08
76460;BME280;65299;46.084;18.762;2023-08-12T11:37:16;101171.94;;;28.10;29.32
76460;BME280;65299;46.084;18.762;2023-08-12T11:40:17;101165.72;;;28.51;28.24
76460;BME280;65299;46.084;18.762;2023-08-12T11:43:21;101161.66;;;28.22;28.89
76460;BME280;65299;46.084;18.762;2023-08-12T11:46:21;101161.31;;;28.24;29.27
76460;BME280;65299;46.084;18.762;2023-08-12T11:49:22;101159.66;;;28.38;29.05
76460;BME280;65299;46.084;18.762;2023-08-12T11:52:22;101164.38;;;28.41;29.86
76460;BME280;65299;46.084;18.762;2023-08-12T11:55:24;101156.78;;;28.73;29.00
76460;BME280;65299;46.084;18.762;2023-08-12T11:58:25;101159.22;;;28.36;28.98
76460;BME280;65299;46.084;18.762;2023-08-12T12:01:25;101151.63;;;28.68;28.62
76460;BME280;65299;46.084;18.762;2023-08-12T12:04:30;101147.88;;;28.76;29.20
76460;BME280;65299;46.084;18.762;2023-08-12T12:07:31;101147.72;;;28.69;30.48
76460;BME280;65299;46.084;18.762;2023-08-12T12:10:32;101141.75;;;28.83;30.32
76460;BME280;65299;46.084;18.762;2023-08-12T12:13:34;101136.38;;;28.90;27.50
76460;BME280;65299;46.084;18.762;2023-08-12T12:16:39;101135.13;;;29.10;30.17
76460;BME280;65299;46.084;18.762;2023-08-12T12:19:43;101136.63;;;28.58;27.39
76460;BME280;65299;46.084;18.762;2023-08-12T12:22:44;101129.88;;;29.20;28.82
76460;BME280;65299;46.084;18.762;2023-08-12T12:25:45;101125.75;;;28.85;28.77
76460;BME280;65299;46.084;18.762;2023-08-12T12:28:45;101123.28;;;28.76;29.06
76460;BME280;65299;46.084;18.762;2023-08-12T12:31:46;101120.06;;;28.93;28.81
76460;BME280;65299;46.084;18.762;2023-08-12T12:34:47;101119.94;;;28.86;28.74
76460;BME280;65299;46.084;18.762;2023-08-12T12:37:47;101117.38;;;28.74;29.37
76460;BME280;65299;46.084;18.762;2023-08-12T12:40:47;101113.47;;;28.75;28.47
76460;BME280;65299;46.084;18.762;2023-08-12T12:43:48;101116.81;;;28.88;28.39
76460;BME280;65299;46.084;18.762;2023-08-12T12:46:48;101110.63;;;28.91;29.47
76460;BME280;65299;46.084;18.762;2023-08-12T12:49:49;101109.59;;;28.76;29.67
76460;BME280;65299;46.084;18.762;2023-08-12T12:52:49;101103.66;;;28.93;29.56
76460;BME280;65299;46.084;18.762;2023-08-12T12:55:49;101105.13;;;29.13;29.71
76460;BME280;65299;46.084;18.762;2023-08-12T12:58:50;101105.16;;;29.39;29.12
76460;BME280;65299;46.084;18.762;2023-08-12T13:01:50;101106.81;;;28.95;29.84
76460;BME280;65299;46.084;18.762;2023-08-12T13:04:51;101111.31;;;29.10;30.45
76460;BME280;65299;46.084;18.762;2023-08-12T13:07:51;101092.63;;;29.38;30.53
76460;BME280;65299;46.084;18.762;2023-08-12T13:10:52;101091.13;;;28.92;29.59
76460;BME280;65299;46.084;18.762;2023-08-12T13:13:52;101081.66;;;29.12;29.43
76460;BME280;65299;46.084;18.762;2023-08-12T13:16:54;101080.53;;;29.13;29.85
76460;BME280;65299;46.084;18.762;2023-08-12T13:19:54;101072.84;;;28.96;29.27
76460;BME280;65299;46.084;18.762;2023-08-12T13:22:55;101076.09;;;29.28;29.29
76460;BME280;65299;46.084;18.762;2023-08-12T13:25:55;101070.47;;;29.17;28.13
76460;BME280;65299;46.084;18.762;2023-08-12T13:28:55;101071.97;;;29.15;28.82
76460;BME280;65299;46.084;18.762;2023-08-12T13:31:56;101065.91;;;29.02;29.58
76460;BME280;65299;46.084;18.762;2023-08-12T13:34:56;101057.63;;;28.95;29.54
76460;BME280;65299;46.084;18.762;2023-08-12T13:37:57;101067.47;;;29.26;28.76
76460;BME280;65299;46.084;18.762;2023-08-12T13:40:57;101054.25;;;29.31;28.08
76460;BME280;65299;46.084;18.762;2023-08-12T13:43:57;101056.47;;;29.52;27.55
76460;BME280;65299;46.084;18.762;2023-08-12T13:46:58;101058.53;;;29.32;27.75
76460;BME280;65299;46.084;18.762;2023-08-12T13:49:59;101053.13;;;28.84;28.40
76460;BME280;65299;46.084;18.762;2023-08-12T13:52:59;101055.03;;;28.34;28.38
76460;BME280;65299;46.084;18.762;2023-08-12T13:55:59;101054.13;;;28.72;28.26
76460;BME280;65299;46.084;18.762;2023-08-12T13:59:00;101047.97;;;28.79;28.25
76460;BME280;65299;46.084;18.762;2023-08-12T14:02:00;101045.19;;;29.01;27.71
76460;BME280;65299;46.084;18.762;2023-08-12T14:05:01;101038.06;;;28.48;28.59
76460;BME280;65299;46.084;18.762;2023-08-12T14:08:01;101038.94;;;28.52;28.23
76460;BME280;65299;46.084;18.762;2023-08-12T14:11:02;101036.91;;;28.26;29.08
76460;BME280;65299;46.084;18.762;2023-08-12T14:14:03;101030.75;;;28.75;28.53
76460;BME280;65299;46.084;18.762;2023-08-12T14:17:04;101027.78;;;29.13;28.01
76460;BME280;65299;46.084;18.762;2023-08-12T14:20:05;101028.00;;;29.27;28.39
76460;BME280;65299;46.084;18.762;2023-08-12T14:23:08;101026.50;;;29.03;27.87
76460;BME280;65299;46.084;18.762;2023-08-12T14:26:08;101026.53;;;29.33;27.95
76460;BME280;65299;46.084;18.762;2023-08-12T14:29:09;101023.22;;;29.20;27.37
76460;BME280;65299;46.084;18.762;2023-08-12T14:32:09;101020.19;;;29.25;27.51
76460;BME280;65299;46.084;18.762;2023-08-12T14:35:10;101030.94;;;29.41;27.44
76460;BME280;65299;46.084;18.762;2023-08-12T14:38:10;101025.56;;;29.48;26.82
76460;BME280;65299;46.084;18.762;2023-08-12T14:41:12;101023.91;;;29.40;27.62
76460;BME280;65299;46.084;18.762;2023-08-12T14:44:14;101018.19;;;29.22;28.62
76460;BME280;65299;46.084;18.762;2023-08-12T14:47:14;101018.84;;;29.42;28.08
76460;BME280;65299;46.084;18.762;2023-08-12T14:50:15;101020.56;;;29.87;28.36
76460;BME280;65299;46.084;18.762;2023-08-12T14:53:15;101011.34;;;29.69;27.05
76460;BME280;65299;46.084;18.762;2023-08-12T14:56:16;101007.31;;;30.29;27.12
76460;BME280;65299;46.084;18.762;2023-08-12T14:59:16;101012.63;;;32.27;24.35
76460;BME280;65299;46.084;18.762;2023-08-12T15:02:20;101005.22;;;33.81;23.26
76460;BME280;65299;46.084;18.762;2023-08-12T15:05:20;101001.56;;;35.28;22.08
76460;BME280;65299;46.084;18.762;2023-08-12T15:08:20;100998.56;;;33.75;22.27
76460;BME280;65299;46.084;18.762;2023-08-12T15:11:21;101000.72;;;34.97;22.25
76460;BME280;65299;46.084;18.762;2023-08-12T15:14:22;100987.53;;;34.78;21.45
76460;BME280;65299;46.084;18.762;2023-08-12T15:17:23;100988.31;;;35.76;20.77
76460;BME280;65299;46.084;18.762;2023-08-12T15:20:23;100994.00;;;36.19;19.66
76460;BME280;65299;46.084;18.762;2023-08-12T15:23:23;100987.56;;;36.25;19.82
76460;BME280;65299;46.084;18.762;2023-08-12T15:26:24;100975.91;;;37.03;18.29
76460;BME280;65299;46.084;18.762;2023-08-12T15:29:24;100983.09;;;37.01;18.63
76460;BME280;65299;46.084;18.762;2023-08-12T15:32:25;100984.88;;;36.45;18.80
76460;BME280;65299;46.084;18.762;2023-08-12T15:35:25;100972.31;;;36.63;18.94
76460;BME280;65299;46.084;18.762;2023-08-12T15:38:26;100976.81;;;36.77;19.07
76460;BME280;65299;46.084;18.762;2023-08-12T15:41:26;100974.91;;;37.33;18.96
76460;BME280;65299;46.084;18.762;2023-08-12T15:44:26;100975.75;;;37.10;19.22